KATW

Appleton International Airport

Appleton, Wisconsin, USA
METAR KATW 180245Z 00000KT 4SM OVC004 M02/M02 A2997
Observed Flight Rules
Dec-18 @ 02:45 UTC (28 minutes ago) Instrument Flight Rules
Wind Visibility Clouds
Calm 4 miles
  • Overcast at 400' AGL
Temperatures Readings
Current -2°C / 28°F
Dewpoint -2°C / 28°F
Humidity 100%
Altimeter 29.97" Hg
Pressure 1015 hPa
Elevation 280
METAR KATW 180245Z 00000KT 4SM OVC004 M02/M02 A2997
Observed Flight Rules
Dec-18 @ 02:45 UTC
(28 minutes ago)
LIFR
Wind Visibility
Calm 4 miles
Clouds
  • Overcast at 400' AGL
Temperature Dewpoint
-2°C / 28°F -2°C / 28°F
Humidity Altimeter Pressure
100% 29.97" Hg 1015 hPa